Airfield :
LOGIN :

Register | Disclaimer

   EN    FR    IT 

 










Legend :    VFR   Marginal VFR   IFR   Intensive IFR   Very Intensive IFR
Visi :
Ceiling :
>= 8 km
>= 3000ft
5 to 8 km
1000 to 3000 ft
1500m to 5 km
500 to 1000 ft
800 to 1500m
200 to 500 ft
< 800m
< 200 ft
Symbols :   Thunderstorms  Fog  Heavy snow  Heavy precipitations  Wind > 20 kt
SIGMETs :     Misc.  Thunderstorms  Icing  Turbulence  Mountain Waves  Volcanic Ashes







- Airport Elevation : 116 ft
- IATA code : ISC
- Download approach charts


EGHE - Scilly Isles / St Mary's

CURRENT METAR :
  • 231520Z 24021KT 8000 SCT006 BKN009 12/11 Q1014

EXPIRED METARs :
  • 231450Z 23022KT 7000 -DZ SCT004 BKN007 12/11 Q1014
  • 231420Z 23022KT 8000 -DZ SCT005 BKN007 12/12 Q1014
  • 231350Z 23023KT 4000 -DZ BR SCT005 BKN007 12/11 Q1014
  • 231320Z 23022KT 8000 SCT005 BKN008 12/11 Q1014
  • 231250Z 23022KT 6000 SCT005 BKN007 12/12 Q1014
  • 231220Z 23020G30KT 4500 BR SCT002 OVC005 12/12 Q1014

TAF AMD TAF EGHE
Valid from the 23 at 15:00 until the 23 at 17:00 UTC


231504Z 2315/2317 21022KT 9999 FEW015 SCT030
TEMPO 2315/2317 22025G35KT
PROB40
TEMPO 2315/2317 8000 BKN007
No reported NOTAMs for that airfield.
1 SIGMET reported for the London FIR (EGTT) :
 
Severe mountain waves
EGTT SIGMET 01 VALID 231130/231530 EGRR
EGTT LONDON FIR SEV MTW FCST WI N4914 W00600 - N5500 W00455 - N5500 E00030 - N4950 W00240 - N4914 W00600 SFC/FL150 STNR NC=



MET'MAP, your aeronautical weather chart ! - Copyright ORBIFLY December 2007 - Disclaimer

ORBIFLY MET'MAP TEAM :

Programming & Development : Alexandra Zaïnal
Concept & Development : Baudouin d'Aumeries
Co-Development & Prog : Marc-Olivier Méhu
Technical & hardware support : Manuel Goepfert

Contact : metmap@orbifly.com




SOURCES & CREDITS :

   NOAA